Terminal Aerodrome Forecast
Issued by NWS

Current Version | Previous Version | Text Only | Print | Product List | Glossary On
Versions: 1 2 3 4 5 6 7 8 9 10 11 12 13 14 15 16 17 18 19
000 FTUS42 KRAH 270520 TAFRWI TAF KRWI 270520Z 2706/2806 29007KT P6SM SCT035 WS020/33035KT FM271400 32009KT P6SM SKC FM272000 30005KT P6SM SKC=

USA.gov is the U.S. government's official web portal to all federal, state and local government web resources and services.